Time;durP1;ratioP1;P1;durP2;ratioP2;P2;SDS_P1;SDS_P2;PMS_P1;PMS_P2;Temp;Humidity;BMP_temperature;BMP_pressure;BME280_temperature;BME280_humidity;BME280_pressure;Samples;Min_cycle;Max_cycle;Signal;HPM_P1;HPM_P2
2022/12/15 00:41:00;;;;;;;15.80;8.38;;;;;;;1.54;74.36;91221.44;2068057;69;20151;-74
2022/12/15 00:43:27;;;;;;;17.15;8.32;;;;;;;1.51;74.42;91211.53;2071346;69;20151;-76
2022/12/15 00:48:38;;;;;;;16.25;9.25;;;;;;;1.64;73.49;91222.13;2071446;69;20167;-74
2022/12/15 00:51:04;;;;;;;21.05;10.20;;;;;;;1.13;75.14;91206.81;2068059;69;20147;-77
2022/12/15 01:21:03;;;;;;;14.13;7.45;;;;;;;1.17;76.38;91221.69;2071530;69;20196;-75
2022/12/15 01:23:30;;;;;;;18.07;8.70;;;;;;;1.42;75.36;91229.66;2071493;69;20269;-74
2022/12/15 01:25:56;;;;;;;14.65;7.88;;;;;;;1.46;74.32;91213.28;2067632;69;20291;-74
2022/12/15 01:28:23;;;;;;;17.65;8.48;;;;;;;1.29;75.36;91215.53;2071282;69;20164;-75
2022/12/15 01:30:49;;;;;;;15.95;7.80;;;;;;;1.48;74.68;91213.44;2071337;69;20152;-75
2022/12/15 01:33:15;;;;;;;13.27;7.32;;;;;;;1.27;76.09;91232.75;2071378;69;20176;-76
2022/12/15 01:35:41;;;;;;;14.18;7.47;;;;;;;1.29;75.79;91226.63;2071021;69;20153;-76
2022/12/15 01:38:09;;;;;;;13.27;7.07;;;;;;;1.41;74.67;91224.69;2065138;69;20331;-76
2022/12/15 01:40:44;;;;;;;13.75;7.18;;;;;;;1.29;75.13;91246.03;2071460;69;20186;-77
2022/12/15 01:43:19;;;;;;;14.10;7.22;;;;;;;1.45;74.14;91241.63;2071457;69;20171;-76
2022/12/15 01:45:57;;;;;;;16.50;6.75;;;;;;;1.40;73.95;91235.06;2071058;69;20199;-76
2022/12/15 01:48:29;;;;;;;14.40;7.72;;;;;;;1.22;75.28;91226.19;2071334;69;20164;-75
2022/12/15 01:51:09;;;;;;;12.67;7.40;;;;;;;1.07;74.98;91223.75;2071366;69;20199;-77
2022/12/15 01:54:11;;;;;;;13.50;7.03;;;;;;;1.27;74.72;91207.78;2068153;69;20221;-76
2022/12/15 01:56:51;;;;;;;13.75;6.97;;;;;;;1.23;73.90;91211.00;2070498;69;20551;-77
2022/12/15 01:59:22;;;;;;;12.32;6.97;;;;;;;0.98;75.43;91211.34;2071435;69;20164;-77
2022/12/15 02:01:49;;;;;;;11.05;6.43;;;;;;;1.12;73.69;91221.97;2071568;69;20172;-76
2022/12/15 02:04:18;;;;;;;12.60;6.82;;;;;;;0.91;75.73;91239.19;2071377;69;20155;-75
2022/12/15 02:06:44;;;;;;;13.15;6.45;;;;;;;1.01;75.15;91239.94;2070519;69;20156;-77
2022/12/15 02:09:09;;;;;;;15.27;7.28;;;;;;;0.82;74.75;91237.16;2071354;69;20172;-78
2022/12/15 02:12:17;;;;;;;14.43;7.38;;;;;;;0.76;76.77;91254.06;2071149;69;20197;-78
2022/12/15 02:15:08;;;;;;;12.15;7.28;;;;;;;1.02;75.33;91246.94;2060482;69;20245;-76
2022/12/15 02:18:07;;;;;;;12.95;7.10;;;;;;;0.97;75.44;91237.59;2060162;69;20165;-74
2022/12/15 02:20:44;;;;;;;14.18;7.22;;;;;;;1.13;74.84;91251.16;2060297;69;20141;-76
2022/12/15 02:23:37;;;;;;;14.55;7.20;;;;;;;0.63;75.96;91258.00;2060543;69;20226;-74
2022/12/15 02:26:03;;;;;;;;;;;;;;;0.79;77.02;91264.00;2060308;69;20134;-76
2022/12/15 02:28:51;;;;;;;13.30;7.00;;;;;;;1.14;75.27;91266.47;2060353;69;20134;-75
2022/12/15 02:34:18;;;;;;;14.38;7.18;;;;;;;1.22;75.39;91245.59;2060372;69;20641;-78
2022/12/15 02:36:48;;;;;;;15.32;7.68;;;;;;;1.16;75.25;91233.34;2060598;69;20236;-78
2022/12/15 02:39:14;;;;;;;18.15;6.72;;;;;;;1.14;75.32;91239.47;2060353;69;20173;-75
2022/12/15 02:41:46;;;;;;;13.57;6.72;;;;;;;0.94;77.06;91246.34;2060589;69;20160;-76
2022/12/15 02:44:21;;;;;;;13.77;7.47;;;;;;;1.23;75.34;91252.59;2060472;69;20228;-76
2022/12/15 02:47:08;;;;;;;12.77;7.68;;;;;;;1.31;75.19;91266.31;2060366;69;20149;-75
2022/12/15 02:49:52;;;;;;;13.07;6.95;;;;;;;1.39;74.20;91274.47;2060683;69;20195;-75
2022/12/15 02:52:44;;;;;;;14.30;7.25;;;;;;;1.39;74.57;91283.53;2071485;69;20179;-76
2022/12/15 02:55:31;;;;;;;12.23;6.57;;;;;;;1.39;74.59;91297.38;2071345;69;20144;-79
2022/12/15 02:58:21;;;;;;;12.75;6.60;;;;;;;1.20;75.54;91297.41;2071369;69;20138;-77
2022/12/15 03:00:56;;;;;;;13.20;6.63;;;;;;;1.43;74.28;91297.66;2071476;69;20192;-77
2022/12/15 03:03:23;;;;;;;11.80;6.55;;;;;;;1.41;74.52;91294.00;2071258;69;20136;-77
2022/12/15 03:05:53;;;;;;;13.85;6.53;;;;;;;0.98;76.14;91286.16;2071382;69;20155;-80
2022/12/15 03:08:21;;;;;;;13.32;6.63;;;;;;;1.08;75.83;91263.25;2071083;69;20140;-76
2022/12/15 03:10:49;;;;;;;12.07;7.47;;;;;;;1.00;76.52;91285.56;2071439;69;20175;-76
2022/12/15 03:13:15;;;;;;;14.90;7.60;;;;;;;1.23;75.64;91282.34;2071418;69;20171;-76
2022/12/15 03:15:41;;;;;;;14.90;7.45;;;;;;;1.01;75.62;91290.56;2071174;69;20152;-78
2022/12/15 03:18:08;;;;;;;15.50;7.43;;;;;;;1.04;76.33;91304.53;2067970;69;20202;-78
2022/12/15 03:20:34;;;;;;;17.88;7.72;;;;;;;0.87;77.54;91308.94;2066536;69;20606;-79
2022/12/15 03:23:00;;;;;;;13.18;7.53;;;;;;;1.01;76.93;91312.00;2068089;69;20148;-77
2022/12/15 03:25:26;;;;;;;12.45;7.00;;;;;;;1.17;75.61;91320.75;2071152;69;20145;-78
2022/12/15 03:27:52;;;;;;;14.13;7.70;;;;;;;1.11;75.29;91307.19;2069671;69;20172;-78
2022/12/15 03:30:18;;;;;;;11.32;6.88;;;;;;;1.18;74.61;91311.09;2065017;69;20224;-77
2022/12/15 03:32:44;;;;;;;13.43;7.18;;;;;;;1.09;75.42;91314.59;2065080;69;20580;-78
2022/12/15 03:35:11;;;;;;;14.40;7.00;;;;;;;1.16;74.97;91311.69;2065111;69;20240;-78
2022/12/15 03:37:38;;;;;;;13.57;7.10;;;;;;;1.13;73.85;91312.13;2065012;69;20200;-76
2022/12/15 03:40:05;;;;;;;14.32;7.40;;;;;;;1.17;74.52;91301.34;2063507;69;20156;-80
2022/12/15 03:42:49;;;;;;;14.18;7.15;;;;;;;0.75;76.13;91311.53;2064934;69;20151;-77
2022/12/15 03:45:24;;;;;;;14.63;7.10;;;;;;;0.89;75.97;91319.41;2065155;69;20172;-77
2022/12/15 03:47:51;;;;;;;12.18;7.03;;;;;;;0.91;75.11;91317.50;2063916;69;20230;-77
2022/12/15 03:50:19;;;;;;;13.07;7.32;;;;;;;0.70;75.75;91307.00;2063964;69;20236;-77
2022/12/15 03:52:53;;;;;;;14.93;7.60;;;;;;;0.46;77.33;91300.41;2064955;69;20161;-76
2022/12/15 03:55:20;;;;;;;14.23;7.85;;;;;;;0.70;76.60;91314.59;2064961;69;20137;-76
2022/12/15 03:57:46;;;;;;;16.10;7.15;;;;;;;0.68;75.44;91317.91;2064960;69;20246;-76
2022/12/15 04:00:15;;;;;;;12.27;7.43;;;;;;;0.75;75.86;91308.75;2064921;69;20149;-76
2022/12/15 04:02:41;;;;;;;12.70;7.22;;;;;;;0.64;76.44;91323.19;2064811;69;20141;-79
2022/12/15 04:05:17;;;;;;;14.13;7.90;;;;;;;0.33;77.27;91331.25;2065041;69;20145;-78
2022/12/15 04:07:43;;;;;;;16.98;8.57;;;;;;;0.53;75.84;91339.63;2064891;69;20195;-78
2022/12/15 04:10:10;;;;;;;15.07;7.90;;;;;;;0.49;75.45;91335.22;2064493;69;20242;-78
2022/12/15 04:12:38;;;;;;;15.98;8.05;;;;;;;0.64;74.89;91342.56;2064931;69;20165;-77
2022/12/15 04:15:06;;;;;;;19.60;9.93;;;;;;;0.60;74.89;91347.06;2064888;69;20149;-77
2022/12/15 04:17:31;;;;;;;22.40;9.55;;;;;;;0.43;75.42;91343.09;2065027;69;20173;-77
2022/12/15 04:20:09;;;;;;;17.40;9.30;;;;;;;0.47;75.08;91342.66;2065012;69;20507;-79
2022/12/15 04:22:46;;;;;;;19.95;9.45;;;;;;;0.29;75.61;91341.28;2065096;69;20252;-79
2022/12/15 05:34:01;;;;;;;27.85;13.77;;;;;;;-0.33;75.70;91407.78;2064842;69;20137;-79
2022/12/15 05:36:26;;;;;;;30.38;12.23;;;;;;;-0.45;74.54;91413.09;2065001;69;20226;-79
2022/12/15 05:38:52;;;;;;;24.55;12.65;;;;;;;-0.57;75.19;91420.44;2064798;69;20188;-78
2022/12/15 05:41:20;;;;;;;30.13;13.60;;;;;;;-0.62;75.17;91405.56;2064939;69;20128;-77
2022/12/15 05:43:46;;;;;;;27.20;14.02;;;;;;;-0.67;76.42;91423.13;2064849;69;20168;-78
2022/12/15 05:46:15;;;;;;;30.17;14.10;;;;;;;-0.67;75.62;91422.38;2064723;69;20152;-76
2022/12/15 05:48:42;;;;;;;26.70;12.77;;;;;;;-0.66;74.73;91423.84;2064937;69;20153;-77
2022/12/15 05:51:10;;;;;;;27.52;13.57;;;;;;;-0.68;74.88;91429.22;2064602;69;20152;-76
2022/12/15 05:53:37;;;;;;;29.15;14.32;;;;;;;-0.80;75.33;91445.53;2064784;69;20192;-77
2022/12/15 05:56:04;;;;;;;33.47;14.48;;;;;;;-0.85;75.81;91449.28;2064619;69;20133;-77
2022/12/15 05:58:30;;;;;;;27.85;14.88;;;;;;;-0.79;75.09;91442.19;2064812;69;20228;-76
2022/12/15 06:01:11;;;;;;;33.85;14.93;;;;;;;-0.77;74.51;91441.66;2065065;69;20546;-77
2022/12/15 06:03:37;;;;;;;31.35;15.38;;;;;;;-0.75;74.78;91449.38;2065099;69;20177;-77
2022/12/15 06:06:04;;;;;;;33.03;15.65;;;;;;;-0.76;73.79;91451.41;2064798;69;20160;-79
2022/12/15 06:08:33;;;;;;;28.25;14.38;;;;;;;-0.65;74.48;91450.19;2064819;69;20243;-80
2022/12/15 06:10:59;;;;;;;31.38;15.27;;;;;;;-0.91;74.70;91446.75;2064603;69;20156;-80
2022/12/15 06:13:30;;;;;;;33.40;15.95;;;;;;;-1.03;75.88;91454.06;2064774;69;20592;-77
2022/12/15 06:16:01;;;;;;;30.70;15.05;;;;;;;-0.89;76.16;91460.00;2061540;69;20205;-78
2022/12/15 06:18:34;;;;;;;32.58;16.75;;;;;;;-0.88;75.18;91461.47;2064710;69;20220;-76
2022/12/15 06:21:03;;;;;;;33.30;16.50;;;;;;;-0.92;74.74;91459.09;2064814;69;20244;-75
2022/12/15 06:23:29;;;;;;;47.45;21.23;;;;;;;-1.18;74.85;91451.44;2064205;69;20252;-76
2022/12/15 06:25:55;;;;;;;57.80;29.02;;;;;;;-1.09;76.67;91459.09;2064617;69;20133;-77
2022/12/15 06:28:24;;;;;;;57.42;26.15;;;;;;;-1.02;75.39;91470.03;2065310;69;20183;-77
2022/12/15 06:30:59;;;;;;;47.00;26.33;;;;;;;-0.95;75.43;91465.78;2068064;69;20201;-76
2022/12/15 06:33:25;;;;;;;52.70;27.23;;;;;;;-1.08;74.48;91466.06;2064820;69;20583;-77
2022/12/15 06:35:52;;;;;;;42.45;20.70;;;;;;;-1.05;75.05;91468.44;2068103;69;20144;-78
2022/12/15 06:38:17;;;;;;;39.15;20.23;;;;;;;-0.98;74.04;91477.94;2067960;69;20198;-77
2022/12/15 06:40:43;;;;;;;44.90;22.27;;;;;;;-1.27;74.08;91460.34;2067843;69;20149;-77
2022/12/15 06:43:08;;;;;;;84.20;42.10;;;;;;;-1.49;75.76;91473.75;2067938;69;20140;-77
2022/12/15 06:45:34;;;;;;;51.15;23.40;;;;;;;-1.46;76.48;91472.63;2067972;69;20148;-76
2022/12/15 06:48:00;;;;;;;51.72;24.70;;;;;;;-1.36;75.14;91467.22;2067976;69;20586;-79
2022/12/15 06:50:26;;;;;;;47.05;22.77;;;;;;;-1.25;74.17;91468.78;2067872;69;20156;-78
2022/12/15 06:52:52;;;;;;;48.08;24.30;;;;;;;-1.35;74.35;91469.41;2067929;69;20574;-77
2022/12/15 06:55:18;;;;;;;52.97;25.02;;;;;;;-1.41;75.56;91482.72;2067908;69;20121;-77
2022/12/15 06:57:46;;;;;;;53.47;24.10;;;;;;;-1.23;76.11;91474.50;2067931;69;20144;-79
2022/12/15 07:00:14;;;;;;;54.15;25.60;;;;;;;-1.13;74.67;91478.09;2067951;69;20260;-77
2022/12/15 07:02:41;;;;;;;42.05;20.23;;;;;;;-1.10;74.34;91474.16;2068229;69;20141;-77
2022/12/15 07:05:08;;;;;;;44.15;22.13;;;;;;;-1.20;75.36;91471.31;2070519;69;20151;-77
2022/12/15 07:07:33;;;;;;;45.25;23.52;;;;;;;-1.14;75.35;91471.81;2072163;69;20244;-76
2022/12/15 07:09:59;;;;;;;44.42;23.40;;;;;;;-1.07;75.04;91475.81;2071532;69;20155;-77
2022/12/15 07:12:25;;;;;;;42.92;21.38;;;;;;;-1.38;76.18;91472.56;2072026;69;20172;-77
2022/12/15 07:14:50;;;;;;;58.00;26.30;;;;;;;-1.48;75.46;91483.47;2071839;69;20139;-77
2022/12/15 07:17:16;;;;;;;64.50;27.35;;;;;;;-1.39;74.54;91487.66;2071326;69;20211;-77
2022/12/15 07:19:42;;;;;;;69.60;27.38;;;;;;;-1.26;74.95;91495.66;2069339;69;20553;-76
2022/12/15 07:22:10;;;;;;;59.58;26.50;;;;;;;-1.28;74.33;91495.50;2072589;69;20151;-77
2022/12/15 07:24:35;;;;;;;67.43;29.08;;;;;;;-1.27;74.69;91501.75;2072255;69;20202;-78
2022/12/15 07:27:01;;;;;;;58.28;25.95;;;;;;;-1.11;74.94;91508.63;2071340;69;20184;-76
2022/12/15 07:29:26;;;;;;;67.10;28.75;;;;;;;-1.27;74.28;91510.03;2074640;69;20583;-78
2022/12/15 07:31:52;;;;;;;90.93;35.83;;;;;;;-1.50;75.28;91513.69;2075199;69;20152;-78
2022/12/15 07:34:18;;;;;;;91.57;36.08;;;;;;;-1.24;74.55;91512.38;2075243;69;20144;-78
2022/12/15 07:36:43;;;;;;;91.60;37.05;;;;;;;-1.20;74.42;91515.50;2075142;69;20243;-77
2022/12/15 07:39:09;;;;;;;212.95;75.78;;;;;;;-1.18;74.66;91521.19;2074878;69;20218;-77
2022/12/15 07:41:37;;;;;;;171.25;65.05;;;;;;;-1.07;74.24;91525.53;2075400;69;20241;-77
2022/12/15 07:44:02;;;;;;;180.23;70.28;;;;;;;-1.03;74.00;91526.59;2075155;69;20156;-77
2022/12/15 07:46:29;;;;;;;161.27;70.85;;;;;;;-0.91;74.36;91531.69;2075219;69;20170;-77
2022/12/15 07:48:55;;;;;;;125.72;56.53;;;;;;;-0.89;74.86;91532.56;2071610;69;20167;-77
2022/12/15 07:51:22;;;;;;;135.75;62.47;;;;;;;-0.80;74.58;91531.94;2071599;69;20171;-77
2022/12/15 07:53:49;;;;;;;131.63;60.95;;;;;;;-0.77;74.55;91533.56;2074973;69;20151;-77
2022/12/15 07:56:14;;;;;;;90.93;44.13;;;;;;;-0.63;74.26;91539.53;2075013;69;20151;-79
2022/12/15 07:58:40;;;;;;;81.53;39.45;;;;;;;-0.48;74.38;91538.66;2075070;69;20152;-78
2022/12/15 08:01:10;;;;;;;90.47;44.55;;;;;;;-0.54;75.15;91555.47;2069034;69;20150;-78
2022/12/15 08:03:36;;;;;;;92.82;42.92;;;;;;;-0.46;74.50;91560.94;2071625;69;20207;-78
2022/12/15 08:06:04;;;;;;;84.05;42.13;;;;;;;-0.33;74.06;91565.41;2074926;69;20268;-78
2022/12/15 08:08:30;;;;;;;90.68;43.42;;;;;;;-0.76;75.39;91564.72;2075115;69;20187;-78
2022/12/15 08:10:55;;;;;;;93.90;43.45;;;;;;;-0.31;74.59;91587.72;2071474;69;20268;-78
2022/12/15 08:13:21;;;;;;;81.80;38.05;;;;;;;-0.24;74.21;91581.38;2071526;69;20197;-76
2022/12/15 08:15:51;;;;;;;72.50;36.75;;;;;;;-0.18;73.84;91583.88;2075084;69;20543;-77
2022/12/15 08:18:16;;;;;;;74.47;35.85;;;;;;;-0.12;73.63;91587.16;2074933;69;20147;-77
2022/12/15 08:20:43;;;;;;;73.30;35.22;;;;;;;-0.08;73.33;91584.72;2071555;69;20572;-75
2022/12/15 08:23:09;;;;;;;78.57;35.75;;;;;;;0.09;72.76;91589.50;2074959;69;20552;-76
2022/12/15 08:25:35;;;;;;;70.95;33.95;;;;;;;0.09;72.61;91581.97;2074749;69;20147;-77
2022/12/15 08:28:00;;;;;;;76.22;35.75;;;;;;;0.15;72.82;91571.38;2071520;69;20205;-75
2022/12/15 08:30:26;;;;;;;77.32;38.90;;;;;;;0.26;72.82;91575.66;2071537;69;20159;-78
2022/12/15 08:32:52;;;;;;;84.88;41.78;;;;;;;0.29;72.63;91559.97;2074827;69;20151;-76
2022/12/15 08:35:18;;;;;;;98.00;47.80;;;;;;;0.36;72.44;91568.16;2074868;69;20168;-78
2022/12/15 08:37:44;;;;;;;115.30;50.75;;;;;;;0.16;73.54;91574.88;2071678;69;20158;-76
2022/12/15 08:40:10;;;;;;;93.97;44.45;;;;;;;0.22;73.13;91573.31;2074947;69;20183;-78
2022/12/15 08:42:36;;;;;;;87.72;45.58;;;;;;;0.57;72.76;91572.53;2071567;69;20206;-76
2022/12/15 08:45:03;;;;;;;99.57;47.13;;;;;;;0.71;72.28;91585.44;2074913;69;20147;-77
2022/12/15 08:47:29;;;;;;;87.72;45.47;;;;;;;0.82;71.93;91580.69;2074970;69;20235;-79
2022/12/15 08:49:55;;;;;;;80.93;39.78;;;;;;;0.79;72.50;91584.63;2074921;69;20144;-81
2022/12/15 08:52:21;;;;;;;70.75;35.17;;;;;;;0.87;72.61;91577.69;2075031;69;20150;-79
2022/12/15 08:54:48;;;;;;;101.97;49.55;;;;;;;1.00;72.18;91585.59;2074904;69;20140;-78
2022/12/15 08:57:15;;;;;;;98.40;47.47;;;;;;;1.15;71.50;91576.34;2074847;69;20586;-78
2022/12/15 08:59:40;;;;;;;80.28;39.25;;;;;;;0.80;71.46;91589.59;2071601;69;20132;-77
2022/12/15 09:02:09;;;;;;;77.90;42.58;;;;;;;1.08;71.46;91593.81;2074948;69;20504;-76
2022/12/15 09:04:35;;;;;;;72.82;40.03;;;;;;;1.25;70.85;91599.28;2074842;69;20192;-76
2022/12/15 09:07:00;;;;;;;58.40;34.22;;;;;;;0.99;71.39;91597.25;2075006;69;20155;-76
2022/12/15 09:09:26;;;;;;;58.97;33.67;;;;;;;1.14;71.00;91599.81;2074662;69;20150;-77
2022/12/15 09:11:52;;;;;;;73.03;38.72;;;;;;;1.23;70.60;91598.41;2074822;69;20144;-76
2022/12/15 09:14:18;;;;;;;74.07;42.00;;;;;;;1.50;70.44;91609.44;2074938;69;20186;-76
2022/12/15 09:16:43;;;;;;;61.58;33.10;;;;;;;1.62;70.94;91601.31;2074827;69;20140;-78
2022/12/15 09:19:09;;;;;;;61.50;34.45;;;;;;;1.62;70.09;91593.72;2075017;69;20128;-78
2022/12/15 09:21:35;;;;;;;59.97;32.55;;;;;;;1.71;70.98;91595.78;2074825;69;20147;-78
2022/12/15 09:24:02;;;;;;;56.85;31.58;;;;;;;1.97;70.70;91587.94;2074760;69;20140;-79
2022/12/15 09:26:33;;;;;;;62.05;34.63;;;;;;;1.63;69.55;91580.59;2071507;69;20144;-80
2022/12/15 09:29:00;;;;;;;60.45;33.65;;;;;;;1.66;70.37;91579.44;2074794;69;20328;-80
2022/12/15 09:31:36;;;;;;;63.50;33.53;;;;;;;1.93;69.93;91571.00;2074856;69;20274;-79
2022/12/15 09:34:02;;;;;;;56.90;32.28;;;;;;;1.23;69.51;91554.75;2074936;69;20611;-78
2022/12/15 09:36:31;;;;;;;65.30;36.22;;;;;;;1.73;70.10;91584.84;2075269;69;20184;-80
2022/12/15 09:38:58;;;;;;;65.30;38.38;;;;;;;1.94;70.33;91578.75;2075425;69;20166;-79
2022/12/15 09:41:30;;;;;;;69.13;36.55;;;;;;;1.84;70.09;91580.06;2075836;69;20147;-78
2022/12/15 09:44:14;;;;;;;66.00;36.17;;;;;;;1.82;70.84;91563.97;2075985;69;20680;-80
2022/12/15 09:46:46;;;;;;;61.30;32.35;;;;;;;1.96;70.35;91556.69;2075382;69;20144;-78
2022/12/15 09:49:37;;;;;;;50.15;26.05;;;;;;;2.04;70.38;91554.50;2076111;69;20120;-78
2022/12/15 09:52:07;;;;;;;44.75;24.58;;;;;;;2.29;69.43;91547.91;2075593;69;20148;-80
2022/12/15 09:54:33;;;;;;;44.85;24.30;;;;;;;2.39;68.85;91554.22;2075174;69;20167;-76
2022/12/15 09:57:06;;;;;;;47.10;26.20;;;;;;;2.39;69.13;91547.94;2075183;69;20144;-79
2022/12/15 09:59:39;;;;;;;50.72;27.50;;;;;;;2.33;69.71;91561.38;2074855;69;20156;-79
2022/12/15 10:02:17;;;;;;;64.13;36.15;;;;;;;2.50;69.42;91556.41;2075059;69;20143;-78
2022/12/15 10:04:59;;;;;;;48.97;27.75;;;;;;;2.78;68.51;91543.03;2074876;69;20156;-80
2022/12/15 10:07:45;;;;;;;49.53;27.13;;;;;;;3.02;67.09;91547.53;2074931;69;20248;-77
2022/12/15 10:10:28;;;;;;;44.75;25.55;;;;;;;2.95;67.84;91540.06;2074617;69;20223;-76
2022/12/15 10:13:01;;;;;;;93.35;42.05;;;;;;;2.66;68.20;91529.03;2074827;69;20266;-79
2022/12/15 10:15:34;;;;;;;121.43;50.40;;;;;;;2.72;68.28;91553.75;2075076;69;20148;-79
2022/12/15 10:18:16;;;;;;;;;;;;;;;2.47;69.20;91546.44;2075264;69;20216;-79
2022/12/15 10:20:41;;;;;;;51.63;27.02;;;;;;;2.76;68.18;91543.63;2074938;69;20036;-80
2022/12/15 10:23:15;;;;;;;51.90;28.55;;;;;;;2.89;67.55;91533.38;2074958;69;20171;-78
2022/12/15 10:26:19;;;;;;;54.88;28.92;;;;;;;3.09;67.19;91529.19;2074705;69;20213;-80
2022/12/15 10:29:09;;;;;;;51.13;28.65;;;;;;;3.17;67.79;91526.25;2069410;69;20201;-80
2022/12/15 10:31:40;;;;;;;50.38;25.50;;;;;;;3.37;67.00;91515.78;2071483;69;20132;-81
2022/12/15 10:34:15;;;;;;;43.95;23.77;;;;;;;3.16;67.68;91527.56;2075099;69;20178;-81
2022/12/15 10:36:49;;;;;;;44.13;23.58;;;;;;;3.41;66.74;91532.75;2075190;69;20577;-79
2022/12/15 10:39:16;;;;;;;51.25;27.63;;;;;;;3.34;66.47;91539.94;2074610;69;20143;-78
2022/12/15 10:41:42;;;;;;;46.03;25.42;;;;;;;3.53;66.92;91528.72;2071400;69;20155;-76
2022/12/15 10:44:24;;;;;;;47.05;26.25;;;;;;;3.65;66.38;91525.28;2074671;69;20171;-78
2022/12/15 10:46:55;;;;;;;48.45;28.02;;;;;;;3.63;66.19;91517.53;2074725;69;20150;-78
2022/12/15 10:49:23;;;;;;;60.53;32.70;;;;;;;3.79;65.36;91513.03;2074727;69;20156;-78
2022/12/15 10:51:59;;;;;;;56.63;31.10;;;;;;;3.88;65.71;91511.50;2074912;69;20575;-78
2022/12/15 10:54:42;;;;;;;52.13;29.33;;;;;;;4.19;65.01;91511.44;2071179;69;20174;-78
2022/12/15 10:57:34;;;;;;;49.88;27.88;;;;;;;4.24;65.26;91510.38;2074697;69;20148;-76
2022/12/15 11:00:12;;;;;;;35.80;21.95;;;;;;;4.51;64.85;91501.63;2073866;69;20620;-76
2022/12/15 11:02:38;;;;;;;44.05;24.45;;;;;;;4.56;64.14;91483.09;2074802;69;20144;-76
2022/12/15 11:05:14;;;;;;;38.53;22.48;;;;;;;4.59;63.45;91491.00;2074691;69;20220;-76
2022/12/15 11:07:44;;;;;;;36.95;22.05;;;;;;;4.39;63.82;91492.50;2074637;69;20646;-77
2022/12/15 11:10:21;;;;;;;47.88;26.98;;;;;;;3.55;65.28;91483.59;2074463;69;20152;-75
2022/12/15 11:13:07;;;;;;;45.38;24.52;;;;;;;3.82;65.47;91483.28;2074838;69;20254;-75
2022/12/15 11:15:37;;;;;;;40.72;23.10;;;;;;;4.03;64.81;91490.88;2074686;69;20594;-76
2022/12/15 11:18:10;;;;;;;37.35;21.67;;;;;;;4.02;64.21;91492.22;2075930;69;20136;-77
2022/12/15 11:20:41;;;;;;;32.50;19.42;;;;;;;4.25;64.31;91483.97;2074745;69;20147;-79
2022/12/15 11:23:41;;;;;;;31.17;18.23;;;;;;;4.38;63.92;91485.47;2074886;69;20693;-76
2022/12/15 11:26:26;;;;;;;30.20;17.88;;;;;;;4.65;63.52;91490.66;2074709;69;20132;-77
2022/12/15 11:29:00;;;;;;;30.60;17.35;;;;;;;4.07;64.59;91489.09;2074563;69;20271;-76
2022/12/15 11:31:30;;;;;;;31.00;18.70;;;;;;;4.52;64.48;91477.28;2074801;69;20159;-77
2022/12/15 11:33:56;;;;;;;35.28;20.58;;;;;;;4.43;63.21;91473.25;2074933;69;20656;-76
2022/12/15 11:36:40;;;;;;;36.83;20.58;;;;;;;4.56;64.02;91458.75;2075798;69;20159;-76
2022/12/15 11:39:18;;;;;;;31.45;15.80;;;;;;;4.39;64.19;91447.91;2074874;69;20227;-78
2022/12/15 11:41:53;;;;;;;28.90;15.32;;;;;;;4.65;63.61;91446.03;2074995;69;20315;-77
2022/12/15 11:44:28;;;;;;;25.88;16.00;;;;;;;4.69;64.05;91437.94;2074883;69;20128;-78
2022/12/15 11:47:10;;;;;;;26.40;15.32;;;;;;;4.08;65.09;91432.09;2075035;69;20139;-78
2022/12/15 11:50:09;;;;;;;27.58;16.92;;;;;;;4.65;64.23;91437.69;2077518;69;20214;-76
2022/12/15 11:52:49;;;;;;;30.17;17.88;;;;;;;4.89;63.12;91434.91;2079533;69;20201;-77
2022/12/15 11:55:36;;;;;;;31.08;17.95;;;;;;;4.95;62.57;91438.81;2073022;69;20229;-76
2022/12/15 11:58:36;;;;;;;29.40;17.70;;;;;;;4.74;62.59;91436.84;2076081;69;20187;-80
2022/12/15 12:01:07;;;;;;;28.27;17.30;;;;;;;4.80;63.00;91428.13;2075685;69;20237;-84
2022/12/15 12:03:39;;;;;;;31.02;17.60;;;;;;;4.99;62.38;91433.47;2075303;69;20562;-79
2022/12/15 12:06:13;;;;;;;31.00;19.30;;;;;;;5.03;62.77;91430.19;2075190;69;20159;-77
2022/12/15 12:08:57;;;;;;;42.90;27.02;;;;;;;4.97;62.52;91422.19;2075190;69;20147;-79
2022/12/15 12:11:49;;;;;;;30.33;20.25;;;;;;;4.90;61.78;91416.84;2075192;69;20155;-80
2022/12/15 12:14:21;;;;;;;43.15;26.17;;;;;;;4.11;63.97;91423.84;2075080;69;20484;-79
2022/12/15 12:16:55;;;;;;;33.60;20.90;;;;;;;4.51;63.69;91414.50;2074921;69;20244;-79
2022/12/15 12:19:30;;;;;;;35.70;19.55;;;;;;;4.84;62.94;91417.22;2071752;69;20271;-78
2022/12/15 12:22:04;;;;;;;32.95;19.38;;;;;;;5.08;62.13;91418.69;2075053;69;20203;-82
2022/12/15 12:24:49;;;;;;;33.88;18.13;;;;;;;4.91;62.11;91404.38;2075053;69;20235;-78
2022/12/15 12:27:38;;;;;;;34.80;20.70;;;;;;;4.87;62.35;91399.28;2075043;69;20142;-78
2022/12/15 12:30:12;;;;;;;34.35;20.08;;;;;;;4.63;62.30;91401.34;2074968;69;20163;-82
2022/12/15 12:32:59;;;;;;;32.47;19.38;;;;;;;4.32;63.46;91401.50;2075181;69;20143;-80
2022/12/15 12:35:25;;;;;;;35.03;19.85;;;;;;;4.22;64.04;91407.19;2074997;69;20163;-81
2022/12/15 12:38:01;;;;;;;32.75;19.75;;;;;;;4.40;63.46;91402.03;2075125;69;20551;-79
2022/12/15 12:40:36;;;;;;;32.78;20.13;;;;;;;4.49;63.31;91397.66;2075023;69;20572;-80
2022/12/15 12:43:03;;;;;;;29.30;18.35;;;;;;;4.37;63.70;91374.63;2075198;69;20140;-79
2022/12/15 12:45:54;;;;;;;27.42;17.58;;;;;;;3.98;64.75;91386.88;2075004;69;20227;-78
2022/12/15 12:48:30;;;;;;;27.88;16.17;;;;;;;3.80;65.34;91371.78;2074977;69;20527;-81
2022/12/15 12:51:19;;;;;;;30.75;17.77;;;;;;;3.92;64.90;91375.34;2075041;69;20273;-82
2022/12/15 12:53:45;;;;;;;32.42;19.83;;;;;;;4.18;64.48;91373.50;2074928;69;20128;-84
2022/12/15 12:56:39;;;;;;;32.58;19.20;;;;;;;3.73;65.52;91365.13;2075158;69;20151;-81
2022/12/15 12:59:27;;;;;;;38.70;21.70;;;;;;;3.96;65.20;91366.53;2074990;69;20645;-78
2022/12/15 13:02:17;;;;;;;36.15;21.40;;;;;;;4.07;64.96;91358.19;2075103;69;20177;-79
2022/12/15 13:04:50;;;;;;;38.58;23.20;;;;;;;4.12;64.88;91361.25;2074884;69;20207;-79
2022/12/15 13:07:29;;;;;;;;;;;;;;;4.24;64.63;91362.00;2075024;69;20583;-80
2022/12/15 13:10:03;;;;;;;41.53;22.88;;;;;;;4.26;64.35;91362.13;2074803;69;20051;-76
2022/12/15 13:12:53;;;;;;;39.58;24.80;;;;;;;3.69;66.17;91364.13;2075013;69;20314;-77
2022/12/15 13:15:42;;;;;;;40.38;22.83;;;;;;;3.98;65.10;91366.66;2075011;69;20175;-79
2022/12/15 13:18:23;;;;;;;41.22;25.52;;;;;;;4.01;65.19;91360.59;2075325;69;20556;-77
2022/12/15 13:20:53;;;;;;;41.72;25.60;;;;;;;4.05;65.22;91360.13;2075153;69;20477;-77
2022/12/15 13:23:22;;;;;;;39.80;25.15;;;;;;;3.67;66.41;91361.97;2075092;69;20148;-77
2022/12/15 13:25:57;;;;;;;37.47;22.88;;;;;;;3.89;66.09;91359.84;2074932;69;20155;-78
2022/12/15 13:28:34;;;;;;;39.05;24.15;;;;;;;3.71;66.62;91359.44;2075154;69;20220;-78
2022/12/15 13:31:15;;;;;;;37.47;21.88;;;;;;;3.47;67.20;91355.81;2075083;69;20155;-76
2022/12/15 13:33:49;;;;;;;37.90;23.55;;;;;;;3.26;67.64;91350.28;2074729;69;20198;-75
2022/12/15 13:36:40;;;;;;;36.50;20.80;;;;;;;3.64;66.75;91335.31;2071588;69;20183;-77
2022/12/15 13:39:15;;;;;;;37.47;21.55;;;;;;;3.74;66.48;91341.53;2075187;69;20511;-75
2022/12/15 13:42:03;;;;;;;36.05;22.13;;;;;;;3.78;66.50;91335.47;2075192;69;20492;-77
2022/12/15 13:44:36;;;;;;;33.47;21.48;;;;;;;3.35;67.36;91332.06;2075069;69;20162;-77
2022/12/15 13:47:24;;;;;;;33.35;20.27;;;;;;;3.55;66.86;91334.06;2074921;69;20161;-78
2022/12/15 13:50:10;;;;;;;36.92;22.65;;;;;;;3.60;66.70;91337.13;2075024;69;20215;-75
2022/12/15 13:52:50;;;;;;;39.22;24.80;;;;;;;3.53;67.15;91336.72;2072705;69;20264;-81
2022/12/15 13:55:30;;;;;;;49.65;29.45;;;;;;;3.61;66.81;91339.28;2069980;69;20259;-75
2022/12/15 13:58:05;;;;;;;44.90;27.17;;;;;;;3.63;67.22;91331.09;2067001;69;20510;-77
2022/12/15 14:00:32;;;;;;;46.45;26.15;;;;;;;3.68;66.65;91321.66;2070427;69;20144;-76
2022/12/15 14:03:09;;;;;;;43.80;26.27;;;;;;;3.70;66.50;91318.28;2071241;69;20143;-76
2022/12/15 14:05:37;;;;;;;45.30;27.65;;;;;;;3.63;66.75;91319.22;2070887;69;20145;-75
2022/12/15 14:08:09;;;;;;;48.88;28.50;;;;;;;3.56;66.81;91318.81;2071047;69;20152;-75
2022/12/15 14:10:40;;;;;;;45.20;27.67;;;;;;;3.66;66.64;91327.09;2071225;69;20132;-75
2022/12/15 14:13:18;;;;;;;47.53;29.75;;;;;;;3.53;67.56;91328.38;2071008;69;20198;-78